Time;durP1;ratioP1;P1;durP2;ratioP2;P2;SDS_P1;SDS_P2;PMS_P1;PMS_P2;Temp;Humidity;BMP_temperature;BMP_pressure;BME280_temperature;BME280_humidity;BME280_pressure;Samples;Min_cycle;Max_cycle;Signal;HPM_P1;HPM_P2
2021/09/17 00:01:35;;;;;;;67.88;36.08;;;;;;;17.74;100.00;101666.25;5092975;28;20175;-61
2021/09/17 00:04:01;;;;;;;73.22;36.53;;;;;;;17.73;100.00;101656.47;5065800;28;20047;-60
2021/09/17 00:06:27;;;;;;;66.22;35.63;;;;;;;17.70;100.00;101646.09;5055825;28;20047;-61
2021/09/17 00:08:52;;;;;;;68.60;37.70;;;;;;;17.66;100.00;101651.16;5093506;28;20084;-61
2021/09/17 00:11:18;;;;;;;71.28;37.67;;;;;;;17.61;100.00;101648.28;5082368;28;20049;-61
2021/09/17 00:13:44;;;;;;;66.30;35.78;;;;;;;17.59;100.00;101653.91;5073071;28;20048;-60
2021/09/17 00:16:10;;;;;;;67.93;35.85;;;;;;;17.58;100.00;101654.97;5072818;28;20040;-60
2021/09/17 00:18:35;;;;;;;73.68;37.88;;;;;;;17.56;100.00;101650.81;5073060;28;20059;-61
2021/09/17 00:21:01;;;;;;;77.32;38.80;;;;;;;17.53;100.00;101649.41;5075155;28;22373;-60
2021/09/17 00:23:27;;;;;;;68.38;35.25;;;;;;;17.51;100.00;101651.47;5093063;28;20040;-61
2021/09/17 00:25:53;;;;;;;74.72;38.50;;;;;;;17.52;100.00;101660.44;5092975;28;20040;-60
2021/09/17 00:28:18;;;;;;;74.80;39.67;;;;;;;17.46;100.00;101656.72;5092869;28;20148;-60
2021/09/17 00:30:44;;;;;;;75.93;39.17;;;;;;;17.48;100.00;101655.47;5093027;28;20070;-61
2021/09/17 00:33:10;;;;;;;73.72;37.47;;;;;;;17.48;100.00;101660.88;5074682;28;20040;-59
2021/09/17 00:35:36;;;;;;;78.13;40.55;;;;;;;17.44;100.00;101653.44;5075183;28;20067;-61
2021/09/17 00:38:03;;;;;;;80.32;38.88;;;;;;;17.38;100.00;101662.44;5092763;28;20055;-59
2021/09/17 00:40:30;;;;;;;76.03;40.83;;;;;;;17.38;100.00;101657.84;5092905;28;20040;-62
2021/09/17 00:42:56;;;;;;;81.30;38.77;;;;;;;17.27;100.00;101653.97;5093102;28;20257;-61
2021/09/17 00:45:22;;;;;;;75.55;39.33;;;;;;;17.30;100.00;101653.56;5074854;28;20276;-60
2021/09/17 00:47:48;;;;;;;73.18;39.88;;;;;;;17.31;100.00;101657.91;5092675;28;20051;-61
2021/09/17 00:50:21;;;;;;;76.15;40.17;;;;;;;17.33;100.00;101644.16;5092616;28;20044;-61
2021/09/17 00:52:48;;;;;;;79.40;39.60;;;;;;;17.33;100.00;101645.00;5092821;28;20047;-61
2021/09/17 00:55:14;;;;;;;76.33;39.83;;;;;;;17.29;100.00;101646.47;5092469;28;20260;-62
2021/09/17 00:57:40;;;;;;;70.93;37.43;;;;;;;17.54;100.00;101629.44;5092782;28;20661;-60
2021/09/17 01:00:09;;;;;;;68.10;37.08;;;;;;;17.38;100.00;101651.63;5092381;28;20395;-60
2021/09/17 01:02:35;;;;;;;76.23;39.47;;;;;;;17.34;100.00;101646.66;5092769;28;20040;-61
2021/09/17 01:05:02;;;;;;;80.53;39.97;;;;;;;17.28;100.00;101647.53;5092854;28;20281;-61
2021/09/17 01:07:28;;;;;;;77.67;38.90;;;;;;;17.17;100.00;101640.13;5074783;28;20562;-60
2021/09/17 01:09:55;;;;;;;74.40;40.33;;;;;;;17.26;100.00;101640.69;5074534;28;20265;-60
2021/09/17 01:12:21;;;;;;;77.40;41.83;;;;;;;17.23;100.00;101636.56;5092228;28;20085;-61
2021/09/17 01:14:49;;;;;;;78.63;40.72;;;;;;;17.27;100.00;101636.94;5092951;28;20241;-62
2021/09/17 01:17:17;;;;;;;81.70;40.47;;;;;;;17.28;100.00;101633.19;5092192;28;20078;-60
2021/09/17 01:19:43;;;;;;;80.07;40.30;;;;;;;17.19;100.00;101640.75;5057956;28;20735;-61
2021/09/17 01:22:10;;;;;;;81.80;39.88;;;;;;;17.22;100.00;101639.50;5092812;28;20304;-61
2021/09/17 01:24:37;;;;;;;83.47;41.40;;;;;;;17.13;100.00;101631.63;5092731;28;20040;-62
2021/09/17 01:27:03;;;;;;;78.07;41.07;;;;;;;17.02;100.00;101632.34;5092533;28;20253;-61
2021/09/17 01:29:29;;;;;;;82.85;40.28;;;;;;;17.03;100.00;101624.00;5092984;28;20271;-61
2021/09/17 01:31:55;;;;;;;71.88;38.55;;;;;;;17.12;100.00;101631.88;5074219;28;20465;-61
2021/09/17 01:34:23;;;;;;;79.30;40.05;;;;;;;17.13;100.00;101622.72;5092256;28;20046;-62
2021/09/17 01:36:50;;;;;;;85.90;42.03;;;;;;;17.13;100.00;101620.00;5074326;28;20043;-60
2021/09/17 01:39:18;;;;;;;79.47;41.33;;;;;;;17.10;100.00;101623.16;5092054;28;20288;-61
2021/09/17 01:41:44;;;;;;;75.83;40.23;;;;;;;17.12;100.00;101629.16;5074355;28;20284;-61
2021/09/17 01:44:10;;;;;;;74.32;39.63;;;;;;;17.14;100.00;101621.66;5074126;28;20260;-60
2021/09/17 01:46:35;;;;;;;70.28;38.00;;;;;;;17.14;100.00;101622.47;5092448;28;20047;-61
2021/09/17 01:49:01;;;;;;;78.60;40.00;;;;;;;17.26;100.00;101614.47;5092392;28;20036;-60
2021/09/17 01:51:27;;;;;;;75.38;38.80;;;;;;;17.19;100.00;101622.66;5092000;28;20101;-60
2021/09/17 01:53:52;;;;;;;71.65;37.40;;;;;;;17.19;100.00;101619.13;5092383;28;20411;-61
2021/09/17 01:56:20;;;;;;;69.63;39.63;;;;;;;17.21;100.00;101617.03;5092232;28;20029;-61
2021/09/17 01:58:47;;;;;;;69.80;38.87;;;;;;;17.24;100.00;101615.75;5092924;28;20128;-61
2021/09/17 02:01:13;;;;;;;;;;;;;;;17.21;100.00;101614.31;5095879;28;20281;-60
2021/09/17 02:03:39;;;;;;;70.17;38.13;;;;;;;17.17;100.00;101608.53;5095831;28;19923;-61
2021/09/17 02:06:05;;;;;;;70.95;38.88;;;;;;;17.13;100.00;101610.00;5095634;28;20114;-61
2021/09/17 02:08:32;;;;;;;74.47;38.47;;;;;;;17.08;100.00;101607.16;5095431;28;20043;-61
2021/09/17 02:10:57;;;;;;;74.90;39.95;;;;;;;17.11;100.00;101606.72;5095765;28;20397;-61
2021/09/17 02:13:23;;;;;;;74.15;41.80;;;;;;;17.01;100.00;101596.38;5095854;28;20036;-60
2021/09/17 02:15:51;;;;;;;77.47;40.42;;;;;;;17.11;100.00;101606.72;5095548;28;20392;-60
2021/09/17 02:18:18;;;;;;;77.77;42.07;;;;;;;17.11;100.00;101597.78;5077030;28;20032;-60
2021/09/17 02:20:46;;;;;;;80.23;41.97;;;;;;;17.17;100.00;101597.72;5095526;28;20244;-60
2021/09/17 02:23:12;;;;;;;78.73;42.70;;;;;;;17.17;100.00;101603.13;5077135;28;20271;-58
2021/09/17 02:25:38;;;;;;;74.10;41.10;;;;;;;17.10;100.00;101593.44;5095399;28;20529;-61
2021/09/17 02:28:04;;;;;;;81.78;43.35;;;;;;;17.10;100.00;101591.53;5095389;28;20276;-61
2021/09/17 02:30:30;;;;;;;76.38;43.17;;;;;;;17.11;100.00;101589.69;5077183;28;20044;-60
2021/09/17 02:32:55;;;;;;;74.97;42.13;;;;;;;17.12;100.00;101580.53;5095369;28;20093;-61
2021/09/17 02:35:21;;;;;;;80.65;42.55;;;;;;;17.13;100.00;101584.88;5094809;28;20434;-61
2021/09/17 02:37:47;;;;;;;81.20;41.97;;;;;;;17.08;100.00;101590.13;5095415;28;20073;-61
2021/09/17 02:40:15;;;;;;;84.25;43.85;;;;;;;17.08;100.00;101590.13;5095148;28;20136;-59
2021/09/17 02:42:41;;;;;;;79.67;43.73;;;;;;;17.13;100.00;101583.00;5095288;28;20036;-61
2021/09/17 02:45:09;;;;;;;82.65;44.60;;;;;;;17.08;100.00;101579.31;5076953;28;20279;-61
2021/09/17 02:47:35;;;;;;;86.40;43.60;;;;;;;17.11;100.00;101578.88;5094852;28;20044;-61
2021/09/17 02:50:01;;;;;;;79.90;43.35;;;;;;;17.13;100.00;101571.38;5094891;28;20756;-60
2021/09/17 02:52:27;;;;;;;82.05;41.80;;;;;;;17.13;100.00;101565.97;5094517;28;20093;-61
2021/09/17 02:54:52;;;;;;;78.93;42.20;;;;;;;17.13;100.00;101576.78;5094890;28;20036;-61
2021/09/17 02:57:19;;;;;;;79.50;43.67;;;;;;;17.10;100.00;101572.63;5094599;28;20124;-60
2021/09/17 02:59:45;;;;;;;74.87;41.23;;;;;;;17.17;100.00;101561.75;5094572;28;20148;-60
2021/09/17 03:02:12;;;;;;;73.05;40.30;;;;;;;17.14;100.00;101564.91;5094674;28;20398;-61
2021/09/17 03:04:38;;;;;;;77.23;40.23;;;;;;;17.18;100.00;101563.41;5094512;28;20084;-61
2021/09/17 03:07:04;;;;;;;76.95;39.65;;;;;;;17.12;100.00;101558.91;5060030;28;20284;-62
2021/09/17 03:09:29;;;;;;;71.85;39.30;;;;;;;17.18;100.00;101556.16;5094369;28;20043;-61
2021/09/17 03:11:55;;;;;;;71.43;38.40;;;;;;;17.19;100.00;101548.84;5093532;28;20040;-61
2021/09/17 03:14:22;;;;;;;67.88;37.88;;;;;;;17.27;100.00;101555.84;5059521;28;20042;-60
2021/09/17 03:16:48;;;;;;;;;;;;;;;17.30;100.00;101550.00;5094621;28;20047;-60
2021/09/17 03:19:14;;;;;;;72.13;37.80;;;;;;;17.27;100.00;101545.03;5094323;28;19912;-61
2021/09/17 03:21:39;;;;;;;68.82;38.90;;;;;;;17.28;100.00;101552.91;5094480;28;20288;-61
2021/09/17 03:24:06;;;;;;;75.95;39.38;;;;;;;17.26;100.00;101549.59;5075937;28;20052;-61
2021/09/17 03:26:31;;;;;;;70.28;37.55;;;;;;;17.24;100.00;101543.59;5094012;28;20036;-62
2021/09/17 03:28:57;;;;;;;67.32;37.40;;;;;;;17.18;100.00;101541.78;5076328;28;20063;-61
2021/09/17 03:31:23;;;;;;;67.47;36.15;;;;;;;17.22;100.00;101543.00;5093524;28;20060;-61
2021/09/17 03:33:48;;;;;;;69.82;36.35;;;;;;;17.16;100.00;101544.72;5093909;28;20040;-61
2021/09/17 03:36:14;;;;;;;66.20;36.45;;;;;;;17.03;100.00;101542.94;5075837;28;20067;-60
2021/09/17 03:38:40;;;;;;;61.72;34.35;;;;;;;17.02;100.00;101533.19;5093548;28;20051;-61
2021/09/17 03:41:06;;;;;;;61.90;33.85;;;;;;;16.95;100.00;101529.72;5094130;28;20202;-62
2021/09/17 03:43:35;;;;;;;55.85;32.80;;;;;;;17.02;100.00;101540.50;5093974;28;20040;-61
2021/09/17 03:46:00;;;;;;;57.63;34.13;;;;;;;17.18;100.00;101533.69;5093437;28;20059;-62
2021/09/17 03:48:26;;;;;;;64.00;35.65;;;;;;;17.30;100.00;101537.31;5093449;28;20292;-60
2021/09/17 03:50:52;;;;;;;61.72;34.85;;;;;;;17.31;100.00;101533.56;5070482;28;20044;-59
2021/09/17 03:53:18;;;;;;;60.00;30.88;;;;;;;17.22;100.00;101537.59;5093964;28;20412;-62
2021/09/17 03:55:44;;;;;;;50.67;29.70;;;;;;;17.09;100.00;101527.72;5093752;28;20043;-62
2021/09/17 03:58:10;;;;;;;50.95;29.70;;;;;;;17.12;100.00;101527.28;5075707;28;20132;-61
2021/09/17 04:00:36;;;;;;;46.17;27.65;;;;;;;17.22;100.00;101529.47;5075114;28;20056;-61
2021/09/17 04:03:03;;;;;;;48.17;27.42;;;;;;;17.13;100.00;101528.94;5093449;28;20048;-61
2021/09/17 04:05:29;;;;;;;47.23;27.50;;;;;;;17.13;100.00;101514.63;5093241;28;20385;-60
2021/09/17 04:07:55;;;;;;;45.15;26.35;;;;;;;17.13;100.00;101520.84;5093542;28;20828;-61
2021/09/17 04:10:21;;;;;;;49.28;26.48;;;;;;;16.99;100.00;101520.13;5093380;28;20056;-62
2021/09/17 04:12:47;;;;;;;44.75;26.35;;;;;;;16.96;100.00;101515.16;5075262;28;20486;-63
2021/09/17 04:15:14;;;;;;;47.47;26.73;;;;;;;17.01;100.00;101518.03;5093274;28;20392;-61
2021/09/17 04:17:40;;;;;;;45.57;26.17;;;;;;;16.90;100.00;101527.66;5093097;28;20044;-62
2021/09/17 04:20:08;;;;;;;44.90;26.00;;;;;;;16.94;100.00;101524.50;5093470;28;20280;-62
2021/09/17 04:22:34;;;;;;;47.90;27.70;;;;;;;16.88;100.00;101524.34;5092793;28;20036;-61
2021/09/17 04:24:59;;;;;;;46.55;28.60;;;;;;;17.01;100.00;101517.22;5075353;28;20356;-61
2021/09/17 04:27:25;;;;;;;49.83;30.00;;;;;;;17.03;100.00;101515.13;5092930;28;20063;-60
2021/09/17 04:29:52;;;;;;;51.20;27.77;;;;;;;16.89;100.00;101517.09;5093057;28;20036;-59
2021/09/17 04:32:18;;;;;;;50.17;27.90;;;;;;;16.79;100.00;101509.47;5058071;28;20498;-61
2021/09/17 04:34:43;;;;;;;48.42;26.77;;;;;;;16.85;100.00;101516.69;5058015;28;20269;-61
2021/09/17 04:37:09;;;;;;;50.50;28.73;;;;;;;16.84;100.00;101514.19;5093368;28;20036;-61
2021/09/17 04:39:35;;;;;;;49.72;27.77;;;;;;;16.83;100.00;101512.53;5092789;28;20036;-60
2021/09/17 04:42:01;;;;;;;47.22;27.95;;;;;;;16.85;100.00;101508.59;5074967;28;20102;-61
2021/09/17 04:44:27;;;;;;;48.95;27.15;;;;;;;16.81;100.00;101511.94;5074710;28;20036;-61
2021/09/17 04:46:53;;;;;;;49.45;27.10;;;;;;;16.78;100.00;101514.03;5075219;28;20043;-61
2021/09/17 04:49:18;;;;;;;44.70;26.48;;;;;;;16.85;100.00;101510.47;5075098;28;20043;-61
2021/09/17 04:51:44;;;;;;;49.50;27.10;;;;;;;16.82;100.00;101519.00;5092843;28;20040;-61
2021/09/17 04:54:12;;;;;;;45.53;26.20;;;;;;;16.73;100.00;101513.06;5092909;28;20404;-61
2021/09/17 04:56:41;;;;;;;46.07;26.40;;;;;;;16.71;100.00;101523.25;5092563;28;20070;-61
2021/09/17 04:59:07;;;;;;;49.47;27.50;;;;;;;16.72;100.00;101514.94;5074741;28;20272;-61
2021/09/17 05:01:32;;;;;;;47.50;26.42;;;;;;;16.71;100.00;101515.97;5074375;28;20280;-61
2021/09/17 05:03:58;;;;;;;44.50;25.88;;;;;;;16.78;100.00;101516.75;5092685;28;20044;-60
2021/09/17 05:06:24;;;;;;;47.88;26.00;;;;;;;16.73;100.00;101515.78;5092862;28;20047;-60
2021/09/17 05:08:49;;;;;;;48.28;27.23;;;;;;;16.75;100.00;101516.38;5092407;28;20036;-59
2021/09/17 05:11:15;;;;;;;47.97;26.63;;;;;;;16.68;100.00;101516.44;5092555;28;20441;-61
2021/09/17 05:13:41;;;;;;;44.50;26.13;;;;;;;16.68;100.00;101527.22;5092317;28;20047;-61
2021/09/17 05:16:07;;;;;;;43.15;25.33;;;;;;;16.69;100.00;101514.53;5074507;28;20068;-61
2021/09/17 05:18:33;;;;;;;46.15;26.92;;;;;;;16.72;100.00;101511.38;5092428;28;20043;-61
2021/09/17 05:20:59;;;;;;;45.10;25.92;;;;;;;16.67;100.00;101514.78;5092952;28;20048;-61
2021/09/17 05:23:24;;;;;;;50.35;26.92;;;;;;;16.70;100.00;101508.94;5074605;28;20047;-61
2021/09/17 05:25:50;;;;;;;50.55;27.45;;;;;;;16.70;100.00;101513.50;5074364;28;20125;-61
2021/09/17 05:28:17;;;;;;;50.58;27.98;;;;;;;17.46;100.00;101514.28;5092725;28;20115;-61
2021/09/17 05:30:43;;;;;;;49.10;26.83;;;;;;;16.85;100.00;101510.47;5057897;28;20044;-61
2021/09/17 05:33:08;;;;;;;46.05;27.23;;;;;;;16.72;100.00;101519.50;5093342;28;20389;-61
2021/09/17 05:35:34;;;;;;;52.72;28.33;;;;;;;16.77;100.00;101515.09;5096724;28;20051;-61
2021/09/17 05:38:00;;;;;;;50.92;27.85;;;;;;;16.78;100.00;101522.16;5097615;28;20072;-61
2021/09/17 05:40:26;;;;;;;48.92;26.90;;;;;;;16.72;100.00;101511.38;5098131;28;20040;-62
2021/09/17 05:42:52;;;;;;;47.25;27.65;;;;;;;16.82;100.00;101519.84;5098762;28;20482;-61
2021/09/17 05:45:17;;;;;;;49.00;28.13;;;;;;;16.80;100.00;101513.00;5096564;28;20119;-62
2021/09/17 05:47:44;;;;;;;44.75;25.92;;;;;;;16.84;100.00;101519.59;5078118;28;20127;-61
2021/09/17 05:50:11;;;;;;;43.70;25.23;;;;;;;16.88;100.00;101520.84;5096284;28;20036;-61
2021/09/17 05:52:38;;;;;;;43.10;22.83;;;;;;;16.89;100.00;101519.78;5096149;28;20280;-62
2021/09/17 05:55:05;;;;;;;47.83;24.67;;;;;;;16.96;100.00;101522.44;5077822;28;20277;-60
2021/09/17 05:57:31;;;;;;;47.10;26.60;;;;;;;16.98;100.00;101520.34;5095944;28;20020;-60
2021/09/17 05:59:58;;;;;;;52.75;26.98;;;;;;;17.01;100.00;101519.94;5095418;28;20292;-60
2021/09/17 06:02:23;;;;;;;52.08;27.75;;;;;;;17.04;100.00;101522.19;5069999;28;20131;-61
2021/09/17 06:04:49;;;;;;;50.25;28.27;;;;;;;17.16;100.00;101516.88;5092967;28;20144;-60
2021/09/17 06:07:14;;;;;;;49.25;27.90;;;;;;;17.27;100.00;101521.53;5075702;28;20119;-61
2021/09/17 06:09:41;;;;;;;50.13;28.63;;;;;;;17.32;100.00;101513.59;5095629;28;20085;-61
2021/09/17 06:12:07;;;;;;;48.45;27.50;;;;;;;17.27;100.00;101512.59;5090015;28;20033;-61
2021/09/17 06:14:33;;;;;;;45.20;27.23;;;;;;;17.29;100.00;101515.91;5089043;28;20041;-62
2021/09/17 06:17:00;;;;;;;46.45;28.58;;;;;;;17.27;100.00;101526.13;5059160;28;20040;-61
2021/09/17 06:19:25;;;;;;;;;;;;;;;17.31;100.00;101514.66;5095798;28;20040;-61
2021/09/17 06:21:51;;;;;;;44.50;26.10;;;;;;;17.32;100.00;101513.59;5077798;28;19931;-62
2021/09/17 06:24:17;;;;;;;42.45;27.52;;;;;;;17.25;100.00;101525.53;5065804;28;20043;-61
2021/09/17 06:26:43;;;;;;;45.42;27.23;;;;;;;17.16;100.00;101516.88;5094996;28;20028;-61
2021/09/17 06:29:09;;;;;;;47.22;26.95;;;;;;;17.16;100.00;101524.97;5095810;28;20047;-61
2021/09/17 06:31:35;;;;;;;48.60;29.05;;;;;;;17.16;100.00;101514.16;5095284;28;20464;-61
2021/09/17 06:34:02;;;;;;;;;;;;;;;17.28;100.00;101523.19;5095576;28;20043;-60
2021/09/17 06:36:27;;;;;;;44.17;26.07;;;;;;;17.32;100.00;101518.16;5077280;28;20356;-61
2021/09/17 06:38:55;;;;;;;41.60;25.77;;;;;;;17.27;100.00;101513.41;5087313;28;20304;-61
2021/09/17 06:41:21;;;;;;;44.20;26.57;;;;;;;17.26;100.00;101511.75;5075724;28;20037;-60
2021/09/17 06:43:46;;;;;;;43.47;25.08;;;;;;;17.30;100.00;101523.81;5074903;28;20124;-62
2021/09/17 06:46:12;;;;;;;40.38;25.42;;;;;;;17.20;100.00;101518.06;5074438;28;20044;-61
2021/09/17 06:48:38;;;;;;;42.38;26.13;;;;;;;17.34;100.00;101516.91;5074668;28;20377;-61
2021/09/17 06:51:04;;;;;;;39.70;25.77;;;;;;;17.44;100.00;101518.25;5074843;28;20051;-62
2021/09/17 06:53:30;;;;;;;38.42;25.00;;;;;;;17.35;100.00;101520.41;5056794;28;20048;-61
2021/09/17 06:55:56;;;;;;;41.08;24.75;;;;;;;17.55;100.00;101522.06;5039911;28;20052;-62
2021/09/17 06:58:28;;;;;;;38.72;24.80;;;;;;;17.51;100.00;101520.88;5074543;28;20400;-61
2021/09/17 07:00:55;;;;;;;45.00;25.60;;;;;;;17.50;100.00;101520.03;5074242;28;20071;-62
2021/09/17 07:03:21;;;;;;;44.37;24.67;;;;;;;17.48;100.00;101516.72;5056674;28;20373;-60
2021/09/17 07:05:47;;;;;;;39.30;24.10;;;;;;;17.64;100.00;101523.41;5074251;28;20048;-61
2021/09/17 07:08:13;;;;;;;41.78;23.67;;;;;;;17.71;100.00;101526.03;5056545;28;20039;-62
2021/09/17 07:10:39;;;;;;;41.20;23.23;;;;;;;17.53;100.00;101519.63;5074178;28;20111;-62
2021/09/17 07:13:06;;;;;;;37.72;21.58;;;;;;;17.59;100.00;101525.97;5074054;28;20112;-61
2021/09/17 07:15:33;;;;;;;35.87;21.90;;;;;;;17.63;100.00;101522.59;5056524;28;20094;-62
2021/09/17 07:18:01;;;;;;;37.50;23.33;;;;;;;17.61;100.00;101508.47;5073744;28;20024;-62
2021/09/17 07:20:27;;;;;;;36.90;21.73;;;;;;;17.59;100.00;101513.28;5056385;28;20552;-62
2021/09/17 07:22:53;;;;;;;39.88;22.85;;;;;;;17.81;100.00;101522.81;5055973;28;20024;-61
2021/09/17 07:25:19;;;;;;;34.80;21.33;;;;;;;17.92;100.00;101512.03;5056436;28;20056;-62
2021/09/17 07:27:45;;;;;;;42.47;23.75;;;;;;;17.90;100.00;101511.44;5073871;28;20045;-61
2021/09/17 07:30:12;;;;;;;39.47;24.10;;;;;;;17.87;100.00;101516.47;5056495;28;20040;-61
2021/09/17 07:32:38;;;;;;;38.70;24.23;;;;;;;17.95;100.00;101512.63;5073870;28;20090;-61
2021/09/17 07:35:04;;;;;;;44.60;23.52;;;;;;;17.91;100.00;101517.69;5079141;28;20044;-62
2021/09/17 07:37:30;;;;;;;;;;;;;;;17.90;100.00;101516.84;5083572;28;20123;-61
2021/09/17 07:39:56;;;;;;;35.73;21.83;;;;;;;17.91;100.00;101518.50;5082571;28;20015;-60
2021/09/17 07:42:22;;;;;;;33.25;20.77;;;;;;;17.90;100.00;101510.63;5067358;28;20033;-62
2021/09/17 07:44:47;;;;;;;34.33;21.25;;;;;;;17.85;100.00;101516.72;5081698;28;20036;-59
2021/09/17 07:47:13;;;;;;;30.67;19.15;;;;;;;17.95;100.00;101509.94;5066063;28;20028;-62
2021/09/17 07:49:39;;;;;;;30.90;19.92;;;;;;;18.01;100.00;101509.88;5068051;28;20560;-61
2021/09/17 07:52:05;;;;;;;29.98;18.88;;;;;;;18.07;100.00;101510.84;5088645;28;20043;-61
2021/09/17 07:54:31;;;;;;;33.15;20.05;;;;;;;18.08;100.00;101507.09;5085643;28;20047;-61
2021/09/17 07:56:57;;;;;;;36.20;21.58;;;;;;;18.22;100.00;101515.84;5082411;28;20384;-61
2021/09/17 07:59:22;;;;;;;30.40;19.17;;;;;;;18.29;100.00;101518.44;5082149;28;20048;-61
2021/09/17 08:01:48;;;;;;;32.80;20.38;;;;;;;18.35;100.00;101517.53;5083399;28;20063;-61
2021/09/17 08:04:14;;;;;;;31.55;19.48;;;;;;;18.37;100.00;101520.00;5082968;28;20544;-61
2021/09/17 08:06:40;;;;;;;37.05;19.70;;;;;;;18.41;100.00;101522.00;5063957;28;20036;-61
2021/09/17 08:09:09;;;;;;;36.92;21.83;;;;;;;18.42;100.00;101517.44;5083437;28;20036;-61
2021/09/17 08:11:35;;;;;;;39.07;22.00;;;;;;;18.62;100.00;101523.38;5082476;28;20464;-60
2021/09/17 08:14:01;;;;;;;35.85;22.30;;;;;;;18.77;100.00;101519.38;5081567;28;20064;-60
2021/09/17 08:16:27;;;;;;;39.83;23.67;;;;;;;18.89;100.00;101514.78;5063900;28;20033;-61
2021/09/17 08:18:53;;;;;;;35.05;23.25;;;;;;;19.02;100.00;101505.63;5072044;28;20043;-62
2021/09/17 08:21:19;;;;;;;40.22;24.63;;;;;;;18.96;100.00;101516.56;5091553;28;20059;-61
2021/09/17 08:23:44;;;;;;;40.40;23.05;;;;;;;19.10;100.00;101507.16;5071579;28;20052;-61
2021/09/17 08:26:11;;;;;;;39.15;22.83;;;;;;;19.31;100.00;101516.56;5085330;28;20043;-61
2021/09/17 08:28:37;;;;;;;36.17;22.50;;;;;;;19.37;100.00;101511.25;5083912;28;20460;-61
2021/09/17 08:31:03;;;;;;;;;;;;;;;19.42;100.00;101517.63;5083074;28;20487;-61
2021/09/17 08:33:31;;;;;;;37.20;22.53;;;;;;;19.58;100.00;101518.75;5087799;28;19919;-61
2021/09/17 08:35:58;;;;;;;40.70;24.77;;;;;;;19.74;100.00;101522.63;5083570;28;20055;-60
2021/09/17 08:38:24;;;;;;;43.10;23.67;;;;;;;19.93;100.00;101525.16;5083126;28;20024;-60
2021/09/17 08:40:54;;;;;;;41.20;24.95;;;;;;;20.14;100.00;101520.13;5081403;28;20500;-57
2021/09/17 08:43:22;;;;;;;36.93;23.13;;;;;;;20.43;100.00;101529.06;5081592;28;20107;-62
2021/09/17 08:45:50;;;;;;;41.93;21.90;;;;;;;20.35;100.00;101526.78;5081223;28;20028;-61
2021/09/17 08:48:29;;;;;;;39.37;24.07;;;;;;;20.87;100.00;101531.16;5088823;28;20043;-61
2021/09/17 08:50:58;;;;;;;37.38;21.90;;;;;;;21.08;100.00;101526.03;5082090;28;20036;-61
2021/09/17 08:53:25;;;;;;;35.80;22.10;;;;;;;21.22;100.00;101531.97;5081064;28;20052;-61
2021/09/17 08:55:52;;;;;;;35.03;21.30;;;;;;;21.41;100.00;101529.78;5082730;28;20040;-57
2021/09/17 08:58:18;;;;;;;34.10;21.80;;;;;;;21.18;100.00;101522.66;5064435;28;20027;-60
2021/09/17 09:00:44;;;;;;;45.75;24.80;;;;;;;21.19;100.00;101529.72;5081344;28;20661;-61
2021/09/17 09:03:26;;;;;;;39.60;24.90;;;;;;;20.97;100.00;101527.78;5080780;28;20044;-61
2021/09/17 09:05:51;;;;;;;37.37;22.83;;;;;;;21.01;100.00;101526.25;5081513;28;20040;-61
2021/09/17 09:08:21;;;;;;;38.53;23.83;;;;;;;21.05;100.00;101524.66;5064089;28;20032;-61
2021/09/17 09:10:48;;;;;;;39.57;23.43;;;;;;;21.43;100.00;101529.50;5087515;28;20064;-60
2021/09/17 09:13:15;;;;;;;42.77;26.00;;;;;;;21.30;100.00;101534.25;5074626;28;20127;-61
2021/09/17 09:15:41;;;;;;;39.07;23.60;;;;;;;21.47;100.00;101534.19;5058491;28;20438;-61
2021/09/17 09:18:11;;;;;;;33.60;22.38;;;;;;;21.48;100.00;101533.13;5057094;28;20093;-61
2021/09/17 09:20:46;;;;;;;43.27;26.50;;;;;;;21.40;100.00;101540.91;5076660;28;20127;-62
2021/09/17 09:23:18;;;;;;;37.10;23.57;;;;;;;21.47;100.00;101525.22;5076082;28;20055;-61
2021/09/17 09:26:00;;;;;;;38.10;23.73;;;;;;;21.77;100.00;101529.44;5076261;28;20559;-60
2021/09/17 09:28:34;;;;;;;43.40;24.87;;;;;;;21.76;100.00;101531.31;5056052;28;20074;-59
2021/09/17 09:31:19;;;;;;;43.37;24.13;;;;;;;21.67;100.00;101537.44;5055825;28;20037;-59
2021/09/17 09:33:46;;;;;;;42.20;25.47;;;;;;;21.90;100.00;101536.38;5074021;28;20036;-61
2021/09/17 09:36:12;;;;;;;49.57;25.13;;;;;;;21.94;100.00;101526.63;5077850;28;20107;-62
2021/09/17 09:38:40;;;;;;;38.92;24.05;;;;;;;21.91;100.00;101533.41;5074751;28;20071;-59
2021/09/17 09:41:11;;;;;;;45.90;25.90;;;;;;;21.91;100.00;101527.13;5073738;28;20086;-61
2021/09/17 09:43:39;;;;;;;38.97;23.80;;;;;;;22.30;100.00;101532.44;5067098;28;20503;-61
2021/09/17 09:46:28;;;;;;;39.97;24.90;;;;;;;22.57;100.00;101537.06;5077728;28;20028;-62
2021/09/17 09:49:02;;;;;;;40.33;25.17;;;;;;;23.05;100.00;101539.84;5094600;28;20040;-62
2021/09/17 09:51:33;;;;;;;40.60;25.10;;;;;;;22.71;100.00;101534.72;5092931;28;20032;-62
2021/09/17 09:54:00;;;;;;;44.07;25.93;;;;;;;22.77;100.00;101535.59;5087266;28;20476;-60
2021/09/17 09:56:27;;;;;;;43.67;27.30;;;;;;;23.28;100.00;101537.84;5076051;28;20063;-61
2021/09/17 09:58:53;;;;;;;51.63;27.83;;;;;;;23.40;100.00;101531.34;5075599;28;20043;-62
2021/09/17 10:01:21;;;;;;;48.87;28.60;;;;;;;23.32;100.00;101530.78;5075334;28;20060;-60
2021/09/17 10:03:52;;;;;;;49.10;27.60;;;;;;;23.88;100.00;101526.63;5080407;28;20040;-62
2021/09/17 10:06:18;;;;;;;44.67;27.70;;;;;;;24.44;99.52;101537.94;5040714;28;20472;-62
2021/09/17 10:08:46;;;;;;;46.87;27.87;;;;;;;24.86;92.57;101538.78;5048114;28;20051;-62
2021/09/17 10:11:12;;;;;;;46.97;28.23;;;;;;;25.76;81.86;101544.56;5072729;28;20102;-62
2021/09/17 10:13:38;;;;;;;44.17;25.93;;;;;;;25.56;81.36;101529.84;5075330;28;20037;-63
2021/09/17 10:16:04;;;;;;;;;;;;;;;25.96;79.77;101535.41;5075378;28;20029;-62
2021/09/17 10:18:31;;;;;;;42.93;25.20;;;;;;;25.64;78.35;101525.72;5075340;28;19917;-63
2021/09/17 10:20:57;;;;;;;47.13;26.00;;;;;;;26.09;75.72;101536.72;5074639;28;20089;-62
2021/09/17 10:23:27;;;;;;;39.38;22.38;;;;;;;27.49;67.51;101535.44;5056229;28;20040;-62
2021/09/17 10:26:07;;;;;;;41.55;23.55;;;;;;;27.57;63.56;101540.31;5075210;28;20068;-61
2021/09/17 10:28:54;;;;;;;47.17;24.13;;;;;;;27.83;60.94;101537.22;5074989;28;20497;-61
2021/09/17 10:31:19;;;;;;;38.88;22.83;;;;;;;27.71;61.25;101536.84;5074560;28;20052;-62
2021/09/17 10:33:46;;;;;;;38.80;21.40;;;;;;;28.10;61.17;101543.97;5057281;28;20036;-61
2021/09/17 10:36:12;;;;;;;32.15;21.08;;;;;;;27.85;61.23;101543.22;5074888;28;20059;-60
2021/09/17 10:38:37;;;;;;;28.30;17.33;;;;;;;28.09;59.81;101536.03;5074396;28;20029;-61
2021/09/17 10:41:07;;;;;;;28.60;17.13;;;;;;;28.85;55.47;101540.63;5077756;28;20444;-61
2021/09/17 10:43:46;;;;;;;24.90;16.40;;;;;;;27.52;56.78;101543.13;5095129;28;20340;-61
2021/09/17 10:46:21;;;;;;;23.23;15.25;;;;;;;28.50;55.26;101537.34;5063152;28;20051;-61
2021/09/17 10:48:51;;;;;;;26.10;15.73;;;;;;;28.50;54.11;101538.16;5056661;28;20039;-61
2021/09/17 10:51:26;;;;;;;27.63;16.65;;;;;;;28.96;53.10;101538.50;5074934;28;20029;-61
2021/09/17 10:54:02;;;;;;;29.25;16.48;;;;;;;29.60;51.63;101537.78;5074390;28;20091;-62
2021/09/17 10:56:49;;;;;;;27.13;16.48;;;;;;;29.80;50.55;101527.44;5074269;28;20040;-63
2021/09/17 10:59:20;;;;;;;26.25;15.32;;;;;;;29.97;49.68;101540.53;5074361;28;20480;-61
2021/09/17 11:02:01;;;;;;;23.17;14.65;;;;;;;29.29;51.03;101519.13;5074302;28;20071;-61
2021/09/17 11:04:29;;;;;;;20.88;13.27;;;;;;;28.61;50.15;101527.81;5074074;28;20043;-62